sensor_id;sensor_type;location;lat;lon;timestamp;pressure;altitude;pressure_sealevel;temperature;humidity
79118;BME280;68523;51.336;-0.846;2023-05-28T00:00:00;101220.0;;;9.58;90.60
79118;BME280;68523;51.336;-0.846;2023-05-28T00:03:00;101220.0;;;9.57;90.62
79118;BME280;68523;51.336;-0.846;2023-05-28T00:06:00;101210.0;;;9.51;90.80
79118;BME280;68523;51.336;-0.846;2023-05-28T00:09:00;101210.0;;;9.49;90.84
79118;BME280;68523;51.336;-0.846;2023-05-28T00:12:00;101210.0;;;9.50;91.05
79118;BME280;68523;51.336;-0.846;2023-05-28T00:15:00;101210.0;;;9.43;91.20
79118;BME280;68523;51.336;-0.846;2023-05-28T00:18:00;101210.0;;;9.34;91.16
79118;BME280;68523;51.336;-0.846;2023-05-28T00:21:00;101210.0;;;9.34;91.67
79118;BME280;68523;51.336;-0.846;2023-05-28T00:24:00;101200.0;;;9.29;91.81
79118;BME280;68523;51.336;-0.846;2023-05-28T00:27:00;101200.0;;;9.23;91.68
79118;BME280;68523;51.336;-0.846;2023-05-28T00:30:00;101200.0;;;9.22;91.99
79118;BME280;68523;51.336;-0.846;2023-05-28T00:33:00;101200.0;;;9.22;91.88
79118;BME280;68523;51.336;-0.846;2023-05-28T00:36:00;101200.0;;;9.18;91.76
79118;BME280;68523;51.336;-0.846;2023-05-28T00:39:00;101200.0;;;9.08;92.01
79118;BME280;68523;51.336;-0.846;2023-05-28T00:42:01;101200.0;;;9.08;92.43
79118;BME280;68523;51.336;-0.846;2023-05-28T00:45:00;101200.0;;;8.95;92.42
79118;BME280;68523;51.336;-0.846;2023-05-28T00:48:00;101190.0;;;8.89;92.39
79118;BME280;68523;51.336;-0.846;2023-05-28T00:51:01;101200.0;;;8.86;92.25
79118;BME280;68523;51.336;-0.846;2023-05-28T00:54:00;101190.0;;;8.90;92.53
79118;BME280;68523;51.336;-0.846;2023-05-28T00:57:00;101190.0;;;8.80;92.78
79118;BME280;68523;51.336;-0.846;2023-05-28T01:00:00;101190.0;;;8.81;92.85
79118;BME280;68523;51.336;-0.846;2023-05-28T01:03:00;101190.0;;;8.81;92.90
79118;BME280;68523;51.336;-0.846;2023-05-28T01:06:00;101180.0;;;8.81;92.86
79118;BME280;68523;51.336;-0.846;2023-05-28T01:09:00;101180.0;;;8.77;92.98
79118;BME280;68523;51.336;-0.846;2023-05-28T01:12:00;101180.0;;;8.75;93.15
79118;BME280;68523;51.336;-0.846;2023-05-28T01:15:00;101180.0;;;8.72;92.86
79118;BME280;68523;51.336;-0.846;2023-05-28T01:18:01;101170.0;;;8.73;93.55
79118;BME280;68523;51.336;-0.846;2023-05-28T01:21:01;101170.0;;;8.61;93.29
79118;BME280;68523;51.336;-0.846;2023-05-28T01:24:01;101170.0;;;8.60;93.39
79118;BME280;68523;51.336;-0.846;2023-05-28T01:27:01;101170.0;;;8.59;93.53
79118;BME280;68523;51.336;-0.846;2023-05-28T01:30:00;101170.0;;;8.61;93.12
79118;BME280;68523;51.336;-0.846;2023-05-28T01:33:00;101170.0;;;8.58;93.29
79118;BME280;68523;51.336;-0.846;2023-05-28T01:36:02;101170.0;;;8.51;93.41
79118;BME280;68523;51.336;-0.846;2023-05-28T01:39:00;101170.0;;;8.46;93.18
79118;BME280;68523;51.336;-0.846;2023-05-28T01:42:00;101170.0;;;8.46;93.69
79118;BME280;68523;51.336;-0.846;2023-05-28T01:45:01;101170.0;;;8.41;93.73
79118;BME280;68523;51.336;-0.846;2023-05-28T01:48:00;101160.0;;;8.31;93.73
79118;BME280;68523;51.336;-0.846;2023-05-28T01:51:00;101160.0;;;8.24;93.85
79118;BME280;68523;51.336;-0.846;2023-05-28T01:54:00;101170.0;;;8.22;94.41
79118;BME280;68523;51.336;-0.846;2023-05-28T01:57:00;101170.0;;;8.22;94.50
79118;BME280;68523;51.336;-0.846;2023-05-28T02:00:00;101170.0;;;8.18;94.47
79118;BME280;68523;51.336;-0.846;2023-05-28T02:03:00;101160.0;;;8.12;94.33
79118;BME280;68523;51.336;-0.846;2023-05-28T02:06:00;101160.0;;;8.09;94.86
79118;BME280;68523;51.336;-0.846;2023-05-28T02:09:00;101160.0;;;7.98;94.88
79118;BME280;68523;51.336;-0.846;2023-05-28T02:12:00;101160.0;;;7.91;94.84
79118;BME280;68523;51.336;-0.846;2023-05-28T02:15:00;101160.0;;;7.91;94.88
79118;BME280;68523;51.336;-0.846;2023-05-28T02:18:00;101160.0;;;7.89;94.93
79118;BME280;68523;51.336;-0.846;2023-05-28T02:21:00;101160.0;;;7.86;95.01
79118;BME280;68523;51.336;-0.846;2023-05-28T02:24:00;101170.0;;;7.88;94.99
79118;BME280;68523;51.336;-0.846;2023-05-28T02:27:00;101170.0;;;7.81;94.85
79118;BME280;68523;51.336;-0.846;2023-05-28T02:30:00;101170.0;;;7.82;95.11
79118;BME280;68523;51.336;-0.846;2023-05-28T02:33:00;101170.0;;;7.87;95.00
79118;BME280;68523;51.336;-0.846;2023-05-28T02:36:00;101170.0;;;8.19;94.41
79118;BME280;68523;51.336;-0.846;2023-05-28T02:39:00;101170.0;;;8.41;93.53
79118;BME280;68523;51.336;-0.846;2023-05-28T02:42:00;101170.0;;;8.48;93.14
79118;BME280;68523;51.336;-0.846;2023-05-28T02:45:00;101170.0;;;8.51;93.43
79118;BME280;68523;51.336;-0.846;2023-05-28T02:48:00;101170.0;;;8.51;93.46
79118;BME280;68523;51.336;-0.846;2023-05-28T02:51:00;101170.0;;;8.50;93.40
79118;BME280;68523;51.336;-0.846;2023-05-28T02:54:00;101160.0;;;8.44;93.67
79118;BME280;68523;51.336;-0.846;2023-05-28T02:57:00;101160.0;;;8.42;93.86
79118;BME280;68523;51.336;-0.846;2023-05-28T03:00:00;101160.0;;;8.40;94.00
79118;BME280;68523;51.336;-0.846;2023-05-28T03:03:00;101160.0;;;8.38;93.81
79118;BME280;68523;51.336;-0.846;2023-05-28T03:06:00;101160.0;;;8.45;93.98
79118;BME280;68523;51.336;-0.846;2023-05-28T03:09:00;101160.0;;;8.48;93.84
79118;BME280;68523;51.336;-0.846;2023-05-28T03:12:00;101170.0;;;8.45;93.96
79118;BME280;68523;51.336;-0.846;2023-05-28T03:15:00;101170.0;;;8.41;94.03
79118;BME280;68523;51.336;-0.846;2023-05-28T03:18:01;101170.0;;;8.42;94.13
79118;BME280;68523;51.336;-0.846;2023-05-28T03:21:00;101180.0;;;8.48;94.56
79118;BME280;68523;51.336;-0.846;2023-05-28T03:24:00;101180.0;;;8.47;94.48
79118;BME280;68523;51.336;-0.846;2023-05-28T03:27:01;101170.0;;;8.52;94.51
79118;BME280;68523;51.336;-0.846;2023-05-28T03:30:00;101170.0;;;8.37;94.02
79118;BME280;68523;51.336;-0.846;2023-05-28T03:33:00;101180.0;;;8.36;94.38
79118;BME280;68523;51.336;-0.846;2023-05-28T03:36:00;101170.0;;;8.42;94.83
79118;BME280;68523;51.336;-0.846;2023-05-28T03:39:00;101170.0;;;8.46;94.54
79118;BME280;68523;51.336;-0.846;2023-05-28T03:42:00;101170.0;;;8.54;94.48
79118;BME280;68523;51.336;-0.846;2023-05-28T03:45:00;101170.0;;;8.52;94.29
79118;BME280;68523;51.336;-0.846;2023-05-28T03:48:01;101170.0;;;8.49;94.32
79118;BME280;68523;51.336;-0.846;2023-05-28T03:51:00;101170.0;;;8.33;93.89
79118;BME280;68523;51.336;-0.846;2023-05-28T03:54:00;101170.0;;;8.07;94.55
79118;BME280;68523;51.336;-0.846;2023-05-28T03:57:00;101170.0;;;8.01;94.74
79118;BME280;68523;51.336;-0.846;2023-05-28T04:00:00;101170.0;;;7.89;95.08
79118;BME280;68523;51.336;-0.846;2023-05-28T04:03:00;101170.0;;;7.76;95.70
79118;BME280;68523;51.336;-0.846;2023-05-28T04:06:00;101170.0;;;7.78;95.60
79118;BME280;68523;51.336;-0.846;2023-05-28T04:09:00;101170.0;;;7.84;95.97
79118;BME280;68523;51.336;-0.846;2023-05-28T04:12:01;101170.0;;;7.81;95.40
79118;BME280;68523;51.336;-0.846;2023-05-28T04:15:00;101170.0;;;7.70;95.34
79118;BME280;68523;51.336;-0.846;2023-05-28T04:18:00;101170.0;;;7.69;95.64
79118;BME280;68523;51.336;-0.846;2023-05-28T04:21:00;101170.0;;;7.69;96.09
79118;BME280;68523;51.336;-0.846;2023-05-28T04:24:00;101170.0;;;7.74;95.93
79118;BME280;68523;51.336;-0.846;2023-05-28T04:27:00;101170.0;;;7.68;95.54
79118;BME280;68523;51.336;-0.846;2023-05-28T04:30:00;101180.0;;;7.70;95.67
79118;BME280;68523;51.336;-0.846;2023-05-28T04:33:00;101180.0;;;7.72;95.68
79118;BME280;68523;51.336;-0.846;2023-05-28T04:36:00;101180.0;;;7.62;95.51
79118;BME280;68523;51.336;-0.846;2023-05-28T04:39:00;101180.0;;;7.67;95.62
79118;BME280;68523;51.336;-0.846;2023-05-28T04:42:00;101180.0;;;7.77;95.57
79118;BME280;68523;51.336;-0.846;2023-05-28T04:45:00;101180.0;;;7.90;95.64
79118;BME280;68523;51.336;-0.846;2023-05-28T04:48:00;101180.0;;;7.89;95.60
79118;BME280;68523;51.336;-0.846;2023-05-28T04:51:00;101190.0;;;8.11;96.05
79118;BME280;68523;51.336;-0.846;2023-05-28T04:54:00;101190.0;;;8.33;95.59
79118;BME280;68523;51.336;-0.846;2023-05-28T04:57:00;101190.0;;;8.44;95.04
79118;BME280;68523;51.336;-0.846;2023-05-28T05:00:00;101190.0;;;8.36;95.04
79118;BME280;68523;51.336;-0.846;2023-05-28T05:03:00;101200.0;;;8.41;94.61
79118;BME280;68523;51.336;-0.846;2023-05-28T05:06:00;101200.0;;;8.61;94.41
79118;BME280;68523;51.336;-0.846;2023-05-28T05:09:00;101200.0;;;9.10;93.10
79118;BME280;68523;51.336;-0.846;2023-05-28T05:12:00;101200.0;;;9.82;90.49
79118;BME280;68523;51.336;-0.846;2023-05-28T05:15:00;101190.0;;;10.65;87.61
79118;BME280;68523;51.336;-0.846;2023-05-28T05:18:00;101190.0;;;11.55;84.68
79118;BME280;68523;51.336;-0.846;2023-05-28T05:21:00;101190.0;;;11.58;84.27
79118;BME280;68523;51.336;-0.846;2023-05-28T05:24:00;101190.0;;;12.15;82.89
79118;BME280;68523;51.336;-0.846;2023-05-28T05:27:00;101190.0;;;12.71;79.98
79118;BME280;68523;51.336;-0.846;2023-05-28T05:30:00;101180.0;;;13.27;78.53
79118;BME280;68523;51.336;-0.846;2023-05-28T05:33:00;101180.0;;;12.83;79.59
79118;BME280;68523;51.336;-0.846;2023-05-28T05:36:00;101180.0;;;13.67;77.32
79118;BME280;68523;51.336;-0.846;2023-05-28T05:39:00;101190.0;;;14.02;74.86
79118;BME280;68523;51.336;-0.846;2023-05-28T05:42:00;101190.0;;;14.24;74.53
79118;BME280;68523;51.336;-0.846;2023-05-28T05:45:00;101190.0;;;13.72;74.85
79118;BME280;68523;51.336;-0.846;2023-05-28T05:48:00;101190.0;;;14.21;74.15
79118;BME280;68523;51.336;-0.846;2023-05-28T05:51:00;101200.0;;;13.88;75.76
79118;BME280;68523;51.336;-0.846;2023-05-28T05:54:00;101200.0;;;13.59;76.21
79118;BME280;68523;51.336;-0.846;2023-05-28T05:57:00;101200.0;;;13.93;74.91
79118;BME280;68523;51.336;-0.846;2023-05-28T06:00:00;101200.0;;;14.43;72.63
79118;BME280;68523;51.336;-0.846;2023-05-28T06:03:00;101200.0;;;14.32;71.91
79118;BME280;68523;51.336;-0.846;2023-05-28T06:06:00;101200.0;;;14.39;72.15
79118;BME280;68523;51.336;-0.846;2023-05-28T06:09:00;101200.0;;;14.40;72.26
79118;BME280;68523;51.336;-0.846;2023-05-28T06:12:00;101200.0;;;15.03;70.53
79118;BME280;68523;51.336;-0.846;2023-05-28T06:15:01;101200.0;;;14.76;69.67
79118;BME280;68523;51.336;-0.846;2023-05-28T06:18:03;101190.0;;;14.58;71.59
79118;BME280;68523;51.336;-0.846;2023-05-28T06:21:00;101200.0;;;14.82;71.40
79118;BME280;68523;51.336;-0.846;2023-05-28T06:24:00;101200.0;;;14.80;70.57
79118;BME280;68523;51.336;-0.846;2023-05-28T06:27:00;101200.0;;;15.05;69.69
79118;BME280;68523;51.336;-0.846;2023-05-28T06:30:00;101200.0;;;15.03;67.84
79118;BME280;68523;51.336;-0.846;2023-05-28T06:33:00;101200.0;;;14.49;71.23
79118;BME280;68523;51.336;-0.846;2023-05-28T06:36:00;101200.0;;;14.27;71.42
79118;BME280;68523;51.336;-0.846;2023-05-28T06:39:00;101200.0;;;13.71;72.64
79118;BME280;68523;51.336;-0.846;2023-05-28T06:42:00;101200.0;;;13.52;74.34
79118;BME280;68523;51.336;-0.846;2023-05-28T06:45:00;101210.0;;;13.68;74.38
79118;BME280;68523;51.336;-0.846;2023-05-28T06:48:00;101210.0;;;14.26;72.40
79118;BME280;68523;51.336;-0.846;2023-05-28T06:51:00;101210.0;;;14.41;69.08
79118;BME280;68523;51.336;-0.846;2023-05-28T06:54:00;101210.0;;;14.49;64.75
79118;BME280;68523;51.336;-0.846;2023-05-28T06:57:00;101210.0;;;14.80;61.04
79118;BME280;68523;51.336;-0.846;2023-05-28T07:00:00;101210.0;;;14.88;53.47
79118;BME280;68523;51.336;-0.846;2023-05-28T07:03:00;101210.0;;;15.03;50.00
79118;BME280;68523;51.336;-0.846;2023-05-28T07:06:00;101210.0;;;14.86;48.26
79118;BME280;68523;51.336;-0.846;2023-05-28T07:09:00;101210.0;;;15.45;47.29
79118;BME280;68523;51.336;-0.846;2023-05-28T07:12:00;101210.0;;;15.87;41.62
79118;BME280;68523;51.336;-0.846;2023-05-28T07:15:00;101210.0;;;17.04;42.55
79118;BME280;68523;51.336;-0.846;2023-05-28T07:18:00;101210.0;;;17.30;40.97
79118;BME280;68523;51.336;-0.846;2023-05-28T07:21:00;101210.0;;;17.62;40.25
79118;BME280;68523;51.336;-0.846;2023-05-28T07:24:00;101210.0;;;17.49;38.84
79118;BME280;68523;51.336;-0.846;2023-05-28T07:27:00;101220.0;;;17.84;38.11
79118;BME280;68523;51.336;-0.846;2023-05-28T07:30:00;101220.0;;;17.86;38.13
79118;BME280;68523;51.336;-0.846;2023-05-28T07:33:00;101220.0;;;17.69;39.78
79118;BME280;68523;51.336;-0.846;2023-05-28T07:36:00;101230.0;;;17.94;39.96
79118;BME280;68523;51.336;-0.846;2023-05-28T07:39:00;101230.0;;;18.39;38.30
79118;BME280;68523;51.336;-0.846;2023-05-28T07:42:00;101240.0;;;18.45;39.18
79118;BME280;68523;51.336;-0.846;2023-05-28T07:45:00;101230.0;;;18.70;38.92
79118;BME280;68523;51.336;-0.846;2023-05-28T07:48:00;101240.0;;;18.62;38.97
79118;BME280;68523;51.336;-0.846;2023-05-28T07:51:00;101240.0;;;18.70;39.88
79118;BME280;68523;51.336;-0.846;2023-05-28T07:54:00;101250.0;;;19.31;40.07
79118;BME280;68523;51.336;-0.846;2023-05-28T07:57:00;101250.0;;;19.15;39.52
79118;BME280;68523;51.336;-0.846;2023-05-28T08:00:00;101250.0;;;18.52;42.47
79118;BME280;68523;51.336;-0.846;2023-05-28T08:03:00;101250.0;;;18.19;42.43
79118;BME280;68523;51.336;-0.846;2023-05-28T08:06:00;101250.0;;;18.72;42.76
79118;BME280;68523;51.336;-0.846;2023-05-28T08:09:00;101250.0;;;18.03;44.60
79118;BME280;68523;51.336;-0.846;2023-05-28T08:12:00;101250.0;;;19.16;43.73
79118;BME280;68523;51.336;-0.846;2023-05-28T08:15:00;101240.0;;;18.60;42.49
79118;BME280;68523;51.336;-0.846;2023-05-28T08:18:00;101240.0;;;19.42;42.00
79118;BME280;68523;51.336;-0.846;2023-05-28T08:21:00;101250.0;;;19.77;40.88
79118;BME280;68523;51.336;-0.846;2023-05-28T08:24:00;101250.0;;;18.88;42.10
79118;BME280;68523;51.336;-0.846;2023-05-28T08:27:00;101240.0;;;18.55;40.10
79118;BME280;68523;51.336;-0.846;2023-05-28T08:30:00;101240.0;;;19.33;41.85
79118;BME280;68523;51.336;-0.846;2023-05-28T08:33:00;101240.0;;;18.99;38.58
79118;BME280;68523;51.336;-0.846;2023-05-28T08:36:00;101250.0;;;18.94;38.72
79118;BME280;68523;51.336;-0.846;2023-05-28T08:39:00;101240.0;;;19.03;39.74
79118;BME280;68523;51.336;-0.846;2023-05-28T08:42:00;101240.0;;;19.29;38.44
79118;BME280;68523;51.336;-0.846;2023-05-28T08:45:00;101230.0;;;20.37;39.66
79118;BME280;68523;51.336;-0.846;2023-05-28T08:48:00;101230.0;;;20.32;37.75
79118;BME280;68523;51.336;-0.846;2023-05-28T08:51:00;101230.0;;;19.98;37.95
79118;BME280;68523;51.336;-0.846;2023-05-28T08:54:00;101230.0;;;20.04;36.41
79118;BME280;68523;51.336;-0.846;2023-05-28T08:57:00;101230.0;;;20.58;37.96
79118;BME280;68523;51.336;-0.846;2023-05-28T09:00:02;101230.0;;;20.14;36.83
79118;BME280;68523;51.336;-0.846;2023-05-28T09:03:00;101230.0;;;21.08;36.59
79118;BME280;68523;51.336;-0.846;2023-05-28T09:06:00;101230.0;;;21.29;35.39
79118;BME280;68523;51.336;-0.846;2023-05-28T09:09:01;101220.0;;;20.82;36.24
79118;BME280;68523;51.336;-0.846;2023-05-28T09:12:03;101220.0;;;20.24;36.89
79118;BME280;68523;51.336;-0.846;2023-05-28T09:15:00;101220.0;;;20.58;37.67
79118;BME280;68523;51.336;-0.846;2023-05-28T09:18:01;101220.0;;;20.12;38.54
79118;BME280;68523;51.336;-0.846;2023-05-28T09:21:00;101220.0;;;21.04;35.95
79118;BME280;68523;51.336;-0.846;2023-05-28T09:24:00;101220.0;;;21.44;35.47
79118;BME280;68523;51.336;-0.846;2023-05-28T09:27:00;101220.0;;;22.04;34.35
79118;BME280;68523;51.336;-0.846;2023-05-28T09:30:02;101220.0;;;21.11;36.14
79118;BME280;68523;51.336;-0.846;2023-05-28T09:33:01;101220.0;;;21.20;32.79
79118;BME280;68523;51.336;-0.846;2023-05-28T09:36:02;101220.0;;;22.05;35.31
79118;BME280;68523;51.336;-0.846;2023-05-28T09:39:05;101220.0;;;22.32;33.46
79118;BME280;68523;51.336;-0.846;2023-05-28T09:42:02;101220.0;;;22.06;33.19
79118;BME280;68523;51.336;-0.846;2023-05-28T09:45:00;101220.0;;;21.82;33.62
79118;BME280;68523;51.336;-0.846;2023-05-28T09:48:00;101220.0;;;21.58;36.38
79118;BME280;68523;51.336;-0.846;2023-05-28T09:51:03;101220.0;;;22.03;33.35
79118;BME280;68523;51.336;-0.846;2023-05-28T09:54:02;101210.0;;;21.46;31.98
79118;BME280;68523;51.336;-0.846;2023-05-28T09:57:02;101210.0;;;22.20;32.12
79118;BME280;68523;51.336;-0.846;2023-05-28T10:00:01;101210.0;;;21.48;29.59
79118;BME280;68523;51.336;-0.846;2023-05-28T10:03:08;101210.0;;;21.93;30.67
79118;BME280;68523;51.336;-0.846;2023-05-28T10:06:04;101210.0;;;22.14;29.48
79118;BME280;68523;51.336;-0.846;2023-05-28T10:09:02;101220.0;;;22.00;30.66
79118;BME280;68523;51.336;-0.846;2023-05-28T10:12:06;101220.0;;;22.41;28.12
79118;BME280;68523;51.336;-0.846;2023-05-28T10:15:00;101220.0;;;21.24;27.53
79118;BME280;68523;51.336;-0.846;2023-05-28T10:18:00;101220.0;;;21.20;28.43
79118;BME280;68523;51.336;-0.846;2023-05-28T10:21:00;101220.0;;;22.48;26.96
79118;BME280;68523;51.336;-0.846;2023-05-28T10:24:01;101210.0;;;21.45;26.67
79118;BME280;68523;51.336;-0.846;2023-05-28T10:27:04;101210.0;;;21.50;27.46
79118;BME280;68523;51.336;-0.846;2023-05-28T10:30:04;101210.0;;;21.86;25.65
79118;BME280;68523;51.336;-0.846;2023-05-28T10:33:03;101210.0;;;21.66;23.22
79118;BME280;68523;51.336;-0.846;2023-05-28T10:36:00;101220.0;;;21.99;24.49
79118;BME280;68523;51.336;-0.846;2023-05-28T10:39:03;101220.0;;;21.62;24.98
79118;BME280;68523;51.336;-0.846;2023-05-28T10:42:00;101220.0;;;22.15;25.81
79118;BME280;68523;51.336;-0.846;2023-05-28T10:45:09;101210.0;;;21.93;24.34
79118;BME280;68523;51.336;-0.846;2023-05-28T10:48:00;101210.0;;;22.46;23.45
79118;BME280;68523;51.336;-0.846;2023-05-28T10:51:04;101220.0;;;21.63;24.83
79118;BME280;68523;51.336;-0.846;2023-05-28T10:54:14;101210.0;;;21.78;25.84
79118;BME280;68523;51.336;-0.846;2023-05-28T10:57:09;101210.0;;;21.99;24.81
79118;BME280;68523;51.336;-0.846;2023-05-28T11:00:01;101200.0;;;21.93;26.23
79118;BME280;68523;51.336;-0.846;2023-05-28T11:03:00;101210.0;;;22.54;24.58
79118;BME280;68523;51.336;-0.846;2023-05-28T11:06:02;101200.0;;;22.46;26.37
79118;BME280;68523;51.336;-0.846;2023-05-28T11:09:00;101200.0;;;23.15;25.32
79118;BME280;68523;51.336;-0.846;2023-05-28T11:12:01;101200.0;;;22.52;24.15
79118;BME280;68523;51.336;-0.846;2023-05-28T11:15:00;101210.0;;;22.04;24.75
79118;BME280;68523;51.336;-0.846;2023-05-28T11:18:00;101200.0;;;22.44;25.44
79118;BME280;68523;51.336;-0.846;2023-05-28T11:21:02;101200.0;;;21.93;25.05
79118;BME280;68523;51.336;-0.846;2023-05-28T11:24:01;101200.0;;;21.66;26.59
79118;BME280;68523;51.336;-0.846;2023-05-28T11:27:00;101200.0;;;22.24;25.80
79118;BME280;68523;51.336;-0.846;2023-05-28T11:30:02;101200.0;;;22.70;24.59
79118;BME280;68523;51.336;-0.846;2023-05-28T11:33:02;101190.0;;;22.70;26.54
79118;BME280;68523;51.336;-0.846;2023-05-28T11:36:00;101190.0;;;22.59;26.29
79118;BME280;68523;51.336;-0.846;2023-05-28T11:39:01;101190.0;;;22.81;27.68
79118;BME280;68523;51.336;-0.846;2023-05-28T11:42:00;101190.0;;;22.79;25.88
79118;BME280;68523;51.336;-0.846;2023-05-28T11:45:00;101180.0;;;22.32;26.63
79118;BME280;68523;51.336;-0.846;2023-05-28T11:48:00;101190.0;;;22.40;26.32
79118;BME280;68523;51.336;-0.846;2023-05-28T11:51:00;101180.0;;;22.93;27.27
79118;BME280;68523;51.336;-0.846;2023-05-28T11:54:00;101190.0;;;22.14;27.11
79118;BME280;68523;51.336;-0.846;2023-05-28T11:57:02;101180.0;;;22.36;27.80
79118;BME280;68523;51.336;-0.846;2023-05-28T12:00:02;101180.0;;;22.65;28.15
79118;BME280;68523;51.336;-0.846;2023-05-28T12:03:00;101180.0;;;22.82;28.82
79118;BME280;68523;51.336;-0.846;2023-05-28T12:06:00;101170.0;;;22.75;28.19
79118;BME280;68523;51.336;-0.846;2023-05-28T12:09:05;101170.0;;;23.05;29.78
79118;BME280;68523;51.336;-0.846;2023-05-28T12:12:03;101170.0;;;22.28;28.51
79118;BME280;68523;51.336;-0.846;2023-05-28T12:15:02;101170.0;;;22.35;28.97
79118;BME280;68523;51.336;-0.846;2023-05-28T12:18:01;101160.0;;;23.61;30.50
79118;BME280;68523;51.336;-0.846;2023-05-28T12:21:00;101170.0;;;22.95;29.37
79118;BME280;68523;51.336;-0.846;2023-05-28T12:24:09;101160.0;;;22.83;29.19
79118;BME280;68523;51.336;-0.846;2023-05-28T12:27:00;101160.0;;;22.94;28.45
79118;BME280;68523;51.336;-0.846;2023-05-28T12:30:00;101160.0;;;23.59;28.93
79118;BME280;68523;51.336;-0.846;2023-05-28T12:33:01;101160.0;;;22.20;28.91
79118;BME280;68523;51.336;-0.846;2023-05-28T12:36:00;101160.0;;;22.38;28.46
79118;BME280;68523;51.336;-0.846;2023-05-28T12:39:00;101160.0;;;22.16;29.46
79118;BME280;68523;51.336;-0.846;2023-05-28T12:42:00;101160.0;;;22.43;29.06
79118;BME280;68523;51.336;-0.846;2023-05-28T12:45:00;101160.0;;;22.43;29.89
79118;BME280;68523;51.336;-0.846;2023-05-28T12:48:00;101150.0;;;23.17;30.71
79118;BME280;68523;51.336;-0.846;2023-05-28T12:51:00;101150.0;;;23.25;30.32
79118;BME280;68523;51.336;-0.846;2023-05-28T12:54:00;101140.0;;;23.60;32.36
79118;BME280;68523;51.336;-0.846;2023-05-28T12:57:00;101150.0;;;22.94;29.97
79118;BME280;68523;51.336;-0.846;2023-05-28T13:00:00;101150.0;;;22.75;31.69
79118;BME280;68523;51.336;-0.846;2023-05-28T13:03:00;101150.0;;;23.41;30.61
79118;BME280;68523;51.336;-0.846;2023-05-28T13:06:00;101150.0;;;23.23;30.66
79118;BME280;68523;51.336;-0.846;2023-05-28T13:09:00;101140.0;;;22.50;30.91
79118;BME280;68523;51.336;-0.846;2023-05-28T13:12:00;101150.0;;;23.86;31.44
79118;BME280;68523;51.336;-0.846;2023-05-28T13:15:00;101150.0;;;23.26;32.36
79118;BME280;68523;51.336;-0.846;2023-05-28T13:18:00;101150.0;;;22.74;32.36
79118;BME280;68523;51.336;-0.846;2023-05-28T13:21:00;101150.0;;;22.39;34.98
79118;BME280;68523;51.336;-0.846;2023-05-28T13:24:02;101150.0;;;22.82;33.29
79118;BME280;68523;51.336;-0.846;2023-05-28T13:27:00;101140.0;;;23.33;33.98
79118;BME280;68523;51.336;-0.846;2023-05-28T13:30:00;101140.0;;;23.69;33.98
79118;BME280;68523;51.336;-0.846;2023-05-28T13:33:00;101140.0;;;22.38;35.72
79118;BME280;68523;51.336;-0.846;2023-05-28T13:36:00;101140.0;;;22.50;34.85
79118;BME280;68523;51.336;-0.846;2023-05-28T13:39:00;101140.0;;;24.38;35.56
79118;BME280;68523;51.336;-0.846;2023-05-28T13:42:00;101150.0;;;23.92;33.67
79118;BME280;68523;51.336;-0.846;2023-05-28T13:45:00;101150.0;;;23.12;35.84
79118;BME280;68523;51.336;-0.846;2023-05-28T13:48:00;101150.0;;;24.21;33.52
79118;BME280;68523;51.336;-0.846;2023-05-28T13:51:01;101150.0;;;22.53;35.25
79118;BME280;68523;51.336;-0.846;2023-05-28T13:54:00;101150.0;;;23.77;34.87
79118;BME280;68523;51.336;-0.846;2023-05-28T13:57:00;101150.0;;;23.38;34.73
79118;BME280;68523;51.336;-0.846;2023-05-28T14:00:00;101150.0;;;23.93;34.70
79118;BME280;68523;51.336;-0.846;2023-05-28T14:03:00;101160.0;;;23.09;35.68
79118;BME280;68523;51.336;-0.846;2023-05-28T14:06:00;101160.0;;;23.13;34.74
79118;BME280;68523;51.336;-0.846;2023-05-28T14:09:00;101160.0;;;22.95;36.37
79118;BME280;68523;51.336;-0.846;2023-05-28T14:12:00;101160.0;;;23.30;35.12
79118;BME280;68523;51.336;-0.846;2023-05-28T14:15:00;101150.0;;;23.66;34.89
79118;BME280;68523;51.336;-0.846;2023-05-28T14:18:00;101150.0;;;24.43;34.20
79118;BME280;68523;51.336;-0.846;2023-05-28T14:21:00;101150.0;;;23.27;35.63
79118;BME280;68523;51.336;-0.846;2023-05-28T14:24:00;101150.0;;;23.65;34.26
79118;BME280;68523;51.336;-0.846;2023-05-28T14:27:00;101150.0;;;24.28;34.01
79118;BME280;68523;51.336;-0.846;2023-05-28T14:30:00;101160.0;;;23.48;34.05
79118;BME280;68523;51.336;-0.846;2023-05-28T14:33:00;101160.0;;;23.49;34.97
79118;BME280;68523;51.336;-0.846;2023-05-28T14:36:00;101160.0;;;23.16;34.79
79118;BME280;68523;51.336;-0.846;2023-05-28T14:39:00;101160.0;;;23.31;34.54
79118;BME280;68523;51.336;-0.846;2023-05-28T14:42:00;101160.0;;;23.53;35.50
79118;BME280;68523;51.336;-0.846;2023-05-28T14:45:00;101160.0;;;22.83;35.99
79118;BME280;68523;51.336;-0.846;2023-05-28T14:48:00;101160.0;;;22.67;35.76
79118;BME280;68523;51.336;-0.846;2023-05-28T14:51:00;101150.0;;;23.15;36.73
79118;BME280;68523;51.336;-0.846;2023-05-28T14:54:00;101160.0;;;22.89;34.85
79118;BME280;68523;51.336;-0.846;2023-05-28T14:57:00;101150.0;;;22.90;35.67
79118;BME280;68523;51.336;-0.846;2023-05-28T15:00:01;101150.0;;;22.34;35.95
79118;BME280;68523;51.336;-0.846;2023-05-28T15:03:00;101150.0;;;22.91;36.39
79118;BME280;68523;51.336;-0.846;2023-05-28T15:06:00;101150.0;;;22.52;36.53
79118;BME280;68523;51.336;-0.846;2023-05-28T15:09:00;101150.0;;;22.73;37.17
79118;BME280;68523;51.336;-0.846;2023-05-28T15:12:00;101150.0;;;22.43;37.42
79118;BME280;68523;51.336;-0.846;2023-05-28T15:15:00;101150.0;;;23.44;38.42
79118;BME280;68523;51.336;-0.846;2023-05-28T15:18:00;101150.0;;;23.87;36.94
79118;BME280;68523;51.336;-0.846;2023-05-28T15:21:00;101140.0;;;23.76;36.18
79118;BME280;68523;51.336;-0.846;2023-05-28T15:24:00;101140.0;;;22.92;36.64
79118;BME280;68523;51.336;-0.846;2023-05-28T15:27:00;101140.0;;;23.24;36.39
79118;BME280;68523;51.336;-0.846;2023-05-28T15:30:01;101140.0;;;22.13;38.20
79118;BME280;68523;51.336;-0.846;2023-05-28T15:33:02;101140.0;;;22.86;36.77
79118;BME280;68523;51.336;-0.846;2023-05-28T15:36:01;101130.0;;;24.01;35.99
79118;BME280;68523;51.336;-0.846;2023-05-28T15:39:01;101130.0;;;23.99;35.38
79118;BME280;68523;51.336;-0.846;2023-05-28T15:42:02;101130.0;;;22.22;38.46